sensor_id;sensor_type;location;lat;lon;timestamp;pressure;altitude;pressure_sealevel;temperature;humidity
46718;BME280;32448;44.960;-0.698;2023-06-14T00:01:03;100886.16;;;18.99;100.00
46718;BME280;32448;44.960;-0.698;2023-06-14T00:03:34;100884.41;;;18.97;100.00
46718;BME280;32448;44.960;-0.698;2023-06-14T00:06:01;100890.66;;;18.92;100.00
46718;BME280;32448;44.960;-0.698;2023-06-14T00:08:29;100889.88;;;18.86;100.00
46718;BME280;32448;44.960;-0.698;2023-06-14T00:10:56;100892.69;;;18.77;100.00
46718;BME280;32448;44.960;-0.698;2023-06-14T00:13:23;100890.81;;;18.82;100.00
46718;BME280;32448;44.960;-0.698;2023-06-14T00:15:51;100890.91;;;18.77;100.00
46718;BME280;32448;44.960;-0.698;2023-06-14T00:18:21;100891.72;;;18.79;100.00
46718;BME280;32448;44.960;-0.698;2023-06-14T00:20:50;100891.84;;;18.72;100.00
46718;BME280;32448;44.960;-0.698;2023-06-14T00:23:22;100891.09;;;18.64;100.00
46718;BME280;32448;44.960;-0.698;2023-06-14T00:25:49;100885.78;;;18.64;100.00
46718;BME280;32448;44.960;-0.698;2023-06-14T00:28:16;100884.91;;;18.63;100.00
46718;BME280;32448;44.960;-0.698;2023-06-14T00:30:43;100889.34;;;18.63;100.00
46718;BME280;32448;44.960;-0.698;2023-06-14T00:33:13;100879.63;;;18.62;100.00
46718;BME280;32448;44.960;-0.698;2023-06-14T00:35:42;100880.63;;;18.51;100.00
46718;BME280;32448;44.960;-0.698;2023-06-14T00:38:09;100878.88;;;18.52;100.00
46718;BME280;32448;44.960;-0.698;2023-06-14T00:40:39;100877.16;;;18.46;100.00
46718;BME280;32448;44.960;-0.698;2023-06-14T00:43:07;100877.09;;;18.52;100.00
46718;BME280;32448;44.960;-0.698;2023-06-14T00:45:35;100879.78;;;18.48;100.00
46718;BME280;32448;44.960;-0.698;2023-06-14T00:48:03;100876.38;;;18.41;100.00
46718;BME280;32448;44.960;-0.698;2023-06-14T00:50:33;100881.69;;;18.38;100.00
46718;BME280;32448;44.960;-0.698;2023-06-14T00:53:01;100876.38;;;18.40;100.00
46718;BME280;32448;44.960;-0.698;2023-06-14T00:55:28;100885.25;;;18.36;100.00
46718;BME280;32448;44.960;-0.698;2023-06-14T00:57:55;100887.91;;;18.36;100.00
46718;BME280;32448;44.960;-0.698;2023-06-14T01:00:22;100879.00;;;18.41;100.00
46718;BME280;32448;44.960;-0.698;2023-06-14T01:02:50;100883.41;;;18.44;100.00
46718;BME280;32448;44.960;-0.698;2023-06-14T01:05:21;100883.44;;;18.41;100.00
46718;BME280;32448;44.960;-0.698;2023-06-14T01:10:36;100896.81;;;18.30;100.00
46718;BME280;32448;44.960;-0.698;2023-06-14T01:13:15;100887.16;;;18.25;100.00
46718;BME280;32448;44.960;-0.698;2023-06-14T01:15:47;100886.34;;;18.21;100.00
46718;BME280;32448;44.960;-0.698;2023-06-14T01:18:14;100883.78;;;18.12;100.00
46718;BME280;32448;44.960;-0.698;2023-06-14T01:20:45;100879.47;;;18.06;100.00
46718;BME280;32448;44.960;-0.698;2023-06-14T01:23:17;100886.50;;;18.06;100.00
46718;BME280;32448;44.960;-0.698;2023-06-14T01:25:44;100879.47;;;18.06;100.00
46718;BME280;32448;44.960;-0.698;2023-06-14T01:28:12;100883.88;;;18.04;100.00
46718;BME280;32448;44.960;-0.698;2023-06-14T01:30:40;100883.03;;;18.02;100.00
46718;BME280;32448;44.960;-0.698;2023-06-14T01:33:20;100895.38;;;18.02;100.00
46718;BME280;32448;44.960;-0.698;2023-06-14T01:35:48;100892.69;;;18.06;100.00
46718;BME280;32448;44.960;-0.698;2023-06-14T01:38:20;100892.78;;;17.99;100.00
46718;BME280;32448;44.960;-0.698;2023-06-14T01:40:49;100896.34;;;17.93;100.00
46718;BME280;32448;44.960;-0.698;2023-06-14T01:43:18;100895.50;;;17.91;100.00
46718;BME280;32448;44.960;-0.698;2023-06-14T01:45:46;100894.59;;;17.94;100.00
46718;BME280;32448;44.960;-0.698;2023-06-14T01:48:14;100887.53;;;17.94;100.00
46718;BME280;32448;44.960;-0.698;2023-06-14T01:50:42;100893.69;;;17.98;100.00
46718;BME280;32448;44.960;-0.698;2023-06-14T01:53:10;100895.50;;;17.91;100.00
46718;BME280;32448;44.960;-0.698;2023-06-14T01:55:37;100892.03;;;17.88;100.00
46718;BME280;32448;44.960;-0.698;2023-06-14T01:58:08;100898.22;;;17.83;100.00
46718;BME280;32448;44.960;-0.698;2023-06-14T02:00:36;100883.25;;;17.84;100.00
46718;BME280;32448;44.960;-0.698;2023-06-14T02:03:03;100892.06;;;17.85;100.00
46718;BME280;32448;44.960;-0.698;2023-06-14T02:05:33;100885.88;;;17.84;100.00
46718;BME280;32448;44.960;-0.698;2023-06-14T02:08:03;100886.84;;;17.77;100.00
46718;BME280;32448;44.960;-0.698;2023-06-14T02:10:30;100876.28;;;17.75;100.00
46718;BME280;32448;44.960;-0.698;2023-06-14T02:12:58;100885.13;;;17.71;100.00
46718;BME280;32448;44.960;-0.698;2023-06-14T02:15:25;100886.88;;;17.74;100.00
46718;BME280;32448;44.960;-0.698;2023-06-14T02:18:01;100883.34;;;17.73;100.00
46718;BME280;32448;44.960;-0.698;2023-06-14T02:20:31;100886.88;;;17.72;100.00
46718;BME280;32448;44.960;-0.698;2023-06-14T02:22:59;100886.88;;;17.75;100.00
46718;BME280;32448;44.960;-0.698;2023-06-14T02:25:26;100887.72;;;17.77;100.00
46718;BME280;32448;44.960;-0.698;2023-06-14T02:27:55;100891.19;;;17.82;100.00
46718;BME280;32448;44.960;-0.698;2023-06-14T02:30:22;100883.31;;;17.78;100.00
46718;BME280;32448;44.960;-0.698;2023-06-14T02:32:49;100893.06;;;17.73;100.00
46718;BME280;32448;44.960;-0.698;2023-06-14T02:35:18;100893.94;;;17.73;100.00
46718;BME280;32448;44.960;-0.698;2023-06-14T02:37:47;100889.50;;;17.75;100.00
46718;BME280;32448;44.960;-0.698;2023-06-14T02:40:14;100893.94;;;17.72;100.00
46718;BME280;32448;44.960;-0.698;2023-06-14T02:42:42;100894.84;;;17.71;100.00
46718;BME280;32448;44.960;-0.698;2023-06-14T02:45:09;100895.72;;;17.71;100.00
46718;BME280;32448;44.960;-0.698;2023-06-14T02:47:37;100892.19;;;17.69;100.00
46718;BME280;32448;44.960;-0.698;2023-06-14T02:50:04;100899.25;;;17.69;100.00
46718;BME280;32448;44.960;-0.698;2023-06-14T02:52:31;100899.25;;;17.70;100.00
46718;BME280;32448;44.960;-0.698;2023-06-14T02:55:00;100901.94;;;17.66;100.00
46718;BME280;32448;44.960;-0.698;2023-06-14T02:57:27;100901.94;;;17.66;100.00
46718;BME280;32448;44.960;-0.698;2023-06-14T02:59:55;100907.25;;;17.61;100.00
46718;BME280;32448;44.960;-0.698;2023-06-14T03:02:22;100902.84;;;17.65;100.00
46718;BME280;32448;44.960;-0.698;2023-06-14T03:04:50;100909.00;;;17.65;100.00
46718;BME280;32448;44.960;-0.698;2023-06-14T03:07:19;100921.28;;;17.69;100.00
46718;BME280;32448;44.960;-0.698;2023-06-14T03:09:50;100919.50;;;17.71;100.00
46718;BME280;32448;44.960;-0.698;2023-06-14T03:12:18;100915.09;;;17.70;100.00
46718;BME280;32448;44.960;-0.698;2023-06-14T03:14:45;100920.41;;;17.70;100.00
46718;BME280;32448;44.960;-0.698;2023-06-14T03:17:15;100927.44;;;17.71;100.00
46718;BME280;32448;44.960;-0.698;2023-06-14T03:19:44;100928.22;;;17.79;100.00
46718;BME280;32448;44.960;-0.698;2023-06-14T03:22:14;100923.88;;;17.75;100.00
46718;BME280;32448;44.960;-0.698;2023-06-14T03:24:42;100930.97;;;17.70;100.00
46718;BME280;32448;44.960;-0.698;2023-06-14T03:27:13;100928.31;;;17.70;100.00
46718;BME280;32448;44.960;-0.698;2023-06-14T03:29:44;100929.22;;;17.68;100.00
46718;BME280;32448;44.960;-0.698;2023-06-14T03:32:11;100929.28;;;17.66;100.00
46718;BME280;32448;44.960;-0.698;2023-06-14T03:34:41;100933.69;;;17.63;100.00
46718;BME280;32448;44.960;-0.698;2023-06-14T03:37:15;100940.72;;;17.62;100.00
46718;BME280;32448;44.960;-0.698;2023-06-14T03:39:42;100937.19;;;17.60;100.00
46718;BME280;32448;44.960;-0.698;2023-06-14T03:42:38;100935.44;;;17.61;100.00
46718;BME280;32448;44.960;-0.698;2023-06-14T03:45:06;100934.56;;;17.60;100.00
46718;BME280;32448;44.960;-0.698;2023-06-14T03:47:34;100941.59;;;17.60;100.00
46718;BME280;32448;44.960;-0.698;2023-06-14T03:50:02;100942.50;;;17.59;100.00
46718;BME280;32448;44.960;-0.698;2023-06-14T03:52:30;100947.78;;;17.65;100.00
46718;BME280;32448;44.960;-0.698;2023-06-14T03:54:58;100946.03;;;17.59;100.00
46718;BME280;32448;44.960;-0.698;2023-06-14T03:57:31;100930.25;;;17.48;100.00
46718;BME280;32448;44.960;-0.698;2023-06-14T03:59:58;100956.56;;;17.62;100.00
46718;BME280;32448;44.960;-0.698;2023-06-14T04:02:27;100948.66;;;17.58;100.00
46718;BME280;32448;44.960;-0.698;2023-06-14T04:04:55;100954.00;;;17.55;100.00
46718;BME280;32448;44.960;-0.698;2023-06-14T04:07:23;100954.00;;;17.55;100.00
46718;BME280;32448;44.960;-0.698;2023-06-14T04:09:51;100950.50;;;17.51;100.00
46718;BME280;32448;44.960;-0.698;2023-06-14T04:12:21;100952.28;;;17.51;100.00
46718;BME280;32448;44.960;-0.698;2023-06-14T04:14:51;100954.06;;;17.47;100.00
46718;BME280;32448;44.960;-0.698;2023-06-14T04:17:18;100953.22;;;17.43;100.00
46718;BME280;32448;44.960;-0.698;2023-06-14T04:19:46;100958.50;;;17.43;100.00
46718;BME280;32448;44.960;-0.698;2023-06-14T04:22:15;100966.44;;;17.43;100.00
46718;BME280;32448;44.960;-0.698;2023-06-14T04:24:43;100966.44;;;17.42;100.00
46718;BME280;32448;44.960;-0.698;2023-06-14T04:27:20;100961.16;;;17.43;100.00
46718;BME280;32448;44.960;-0.698;2023-06-14T04:29:49;100973.50;;;17.41;100.00
46718;BME280;32448;44.960;-0.698;2023-06-14T04:32:20;100973.50;;;17.43;100.00
46718;BME280;32448;44.960;-0.698;2023-06-14T04:34:48;100976.16;;;17.40;100.00
46718;BME280;32448;44.960;-0.698;2023-06-14T04:37:17;100977.84;;;17.47;100.00
46718;BME280;32448;44.960;-0.698;2023-06-14T04:39:44;100985.81;;;17.41;100.00
46718;BME280;32448;44.960;-0.698;2023-06-14T04:42:12;100988.47;;;17.42;100.00
46718;BME280;32448;44.960;-0.698;2023-06-14T04:44:46;100988.47;;;17.39;100.00
46718;BME280;32448;44.960;-0.698;2023-06-14T04:47:15;100990.22;;;17.42;100.00
46718;BME280;32448;44.960;-0.698;2023-06-14T04:49:44;100992.88;;;17.42;100.00
46718;BME280;32448;44.960;-0.698;2023-06-14T04:52:12;101003.44;;;17.43;100.00
46718;BME280;32448;44.960;-0.698;2023-06-14T04:54:43;101002.50;;;17.47;100.00
46718;BME280;32448;44.960;-0.698;2023-06-14T04:57:15;100998.94;;;17.56;100.00
46718;BME280;32448;44.960;-0.698;2023-06-14T04:59:48;101000.69;;;17.56;100.00
46718;BME280;32448;44.960;-0.698;2023-06-14T05:02:15;101007.75;;;17.55;100.00
46718;BME280;32448;44.960;-0.698;2023-06-14T05:04:43;101009.47;;;17.59;100.00
46718;BME280;32448;44.960;-0.698;2023-06-14T05:07:10;101013.84;;;17.62;100.00
46718;BME280;32448;44.960;-0.698;2023-06-14T05:09:37;101020.91;;;17.66;100.00
46718;BME280;32448;44.960;-0.698;2023-06-14T05:12:05;101012.94;;;17.70;100.00
46718;BME280;32448;44.960;-0.698;2023-06-14T05:14:35;101008.50;;;17.72;100.00
46718;BME280;32448;44.960;-0.698;2023-06-14T05:17:04;101012.84;;;17.79;100.00
46718;BME280;32448;44.960;-0.698;2023-06-14T05:19:31;101011.06;;;17.83;100.00
46718;BME280;32448;44.960;-0.698;2023-06-14T05:21:58;101010.19;;;17.82;100.00
46718;BME280;32448;44.960;-0.698;2023-06-14T05:24:25;101009.28;;;17.83;100.00
46718;BME280;32448;44.960;-0.698;2023-06-14T05:26:53;101020.69;;;17.90;100.00
46718;BME280;32448;44.960;-0.698;2023-06-14T05:29:20;101022.44;;;17.93;100.00
46718;BME280;32448;44.960;-0.698;2023-06-14T05:31:47;101026.81;;;17.97;100.00
46718;BME280;32448;44.960;-0.698;2023-06-14T05:34:16;101040.84;;;18.02;100.00
46718;BME280;32448;44.960;-0.698;2023-06-14T05:36:43;101038.06;;;18.20;100.00
46718;BME280;32448;44.960;-0.698;2023-06-14T05:39:10;101034.50;;;18.21;100.00
46718;BME280;32448;44.960;-0.698;2023-06-14T05:41:38;101036.28;;;18.21;100.00
46718;BME280;32448;44.960;-0.698;2023-06-14T05:44:05;101045.91;;;18.28;100.00
46718;BME280;32448;44.960;-0.698;2023-06-14T05:46:32;101038.72;;;18.39;100.00
46718;BME280;32448;44.960;-0.698;2023-06-14T05:49:00;101037.81;;;18.41;100.00
46718;BME280;32448;44.960;-0.698;2023-06-14T05:51:27;101045.75;;;18.44;100.00
46718;BME280;32448;44.960;-0.698;2023-06-14T05:53:54;101054.47;;;18.52;100.00
46718;BME280;32448;44.960;-0.698;2023-06-14T05:56:22;101053.50;;;18.63;100.00
46718;BME280;32448;44.960;-0.698;2023-06-14T05:58:50;101049.06;;;18.66;100.00
46718;BME280;32448;44.960;-0.698;2023-06-14T06:01:17;101055.88;;;18.84;100.00
46718;BME280;32448;44.960;-0.698;2023-06-14T06:03:45;101062.09;;;18.80;100.00
46718;BME280;32448;44.960;-0.698;2023-06-14T06:06:13;101062.03;;;18.86;100.00
46718;BME280;32448;44.960;-0.698;2023-06-14T06:08:41;101066.25;;;19.01;100.00
46718;BME280;32448;44.960;-0.698;2023-06-14T06:11:08;101067.19;;;18.98;100.00
46718;BME280;32448;44.960;-0.698;2023-06-14T06:13:36;101062.56;;;19.12;100.00
46718;BME280;32448;44.960;-0.698;2023-06-14T06:16:03;101059.09;;;19.10;100.00
46718;BME280;32448;44.960;-0.698;2023-06-14T06:18:30;101060.78;;;19.14;100.00
46718;BME280;32448;44.960;-0.698;2023-06-14T06:20:58;101066.00;;;19.20;100.00
46718;BME280;32448;44.960;-0.698;2023-06-14T06:23:25;101058.81;;;19.28;100.00
46718;BME280;32448;44.960;-0.698;2023-06-14T06:25:53;101068.44;;;19.34;100.00
46718;BME280;32448;44.960;-0.698;2023-06-14T06:28:20;101070.91;;;19.51;100.00
46718;BME280;32448;44.960;-0.698;2023-06-14T06:30:48;101070.88;;;19.52;100.00
46718;BME280;32448;44.960;-0.698;2023-06-14T06:33:15;101069.97;;;19.55;100.00
46718;BME280;32448;44.960;-0.698;2023-06-14T06:35:42;101069.84;;;19.62;100.00
46718;BME280;32448;44.960;-0.698;2023-06-14T06:38:10;101080.34;;;19.67;100.00
46718;BME280;32448;44.960;-0.698;2023-06-14T06:40:37;101079.38;;;19.74;100.00
46718;BME280;32448;44.960;-0.698;2023-06-14T06:43:05;101072.00;;;19.93;100.00
46718;BME280;32448;44.960;-0.698;2023-06-14T06:45:40;101072.66;;;20.07;100.00
46718;BME280;32448;44.960;-0.698;2023-06-14T06:48:07;101072.44;;;20.19;100.00
46718;BME280;32448;44.960;-0.698;2023-06-14T06:50:36;101068.72;;;20.29;100.00
46718;BME280;32448;44.960;-0.698;2023-06-14T06:53:04;101063.38;;;20.31;100.00
46718;BME280;32448;44.960;-0.698;2023-06-14T06:55:31;101058.88;;;20.34;100.00
46718;BME280;32448;44.960;-0.698;2023-06-14T06:57:59;101061.25;;;20.51;100.00
46718;BME280;32448;44.960;-0.698;2023-06-14T07:00:27;101054.06;;;20.55;100.00
46718;BME280;32448;44.960;-0.698;2023-06-14T07:02:54;101059.00;;;20.76;100.00
46718;BME280;32448;44.960;-0.698;2023-06-14T07:05:22;101055.22;;;20.86;100.00
46718;BME280;32448;44.960;-0.698;2023-06-14T07:07:50;101070.38;;;20.81;100.00
46718;BME280;32448;44.960;-0.698;2023-06-14T07:10:17;101073.69;;;20.92;100.00
46718;BME280;32448;44.960;-0.698;2023-06-14T07:12:45;101076.00;;;21.09;100.00
46718;BME280;32448;44.960;-0.698;2023-06-14T07:15:12;101075.69;;;21.24;100.00
46718;BME280;32448;44.960;-0.698;2023-06-14T07:17:40;101078.38;;;21.23;100.00
46718;BME280;32448;44.960;-0.698;2023-06-14T07:20:08;101080.69;;;21.39;100.00
46718;BME280;32448;44.960;-0.698;2023-06-14T07:22:41;101081.19;;;21.55;100.00
46718;BME280;32448;44.960;-0.698;2023-06-14T07:25:10;101073.75;;;21.69;100.00
46718;BME280;32448;44.960;-0.698;2023-06-14T07:27:42;101078.09;;;21.75;100.00
46718;BME280;32448;44.960;-0.698;2023-06-14T07:30:10;101082.09;;;21.91;100.00
46718;BME280;32448;44.960;-0.698;2023-06-14T07:32:37;101090.03;;;21.94;100.00
46718;BME280;32448;44.960;-0.698;2023-06-14T07:35:05;101088.19;;;21.96;100.00
46718;BME280;32448;44.960;-0.698;2023-06-14T07:37:33;101097.72;;;22.06;100.00
46718;BME280;32448;44.960;-0.698;2023-06-14T07:40:00;101099.22;;;22.18;100.00
46718;BME280;32448;44.960;-0.698;2023-06-14T07:42:30;101099.81;;;22.29;100.00
46718;BME280;32448;44.960;-0.698;2023-06-14T07:44:57;101100.38;;;22.42;100.00
46718;BME280;32448;44.960;-0.698;2023-06-14T07:47:25;101095.81;;;22.45;100.00
46718;BME280;32448;44.960;-0.698;2023-06-14T07:49:52;101102.50;;;22.62;100.00
46718;BME280;32448;44.960;-0.698;2023-06-14T07:52:19;101100.28;;;22.77;100.00
46718;BME280;32448;44.960;-0.698;2023-06-14T07:54:47;101098.34;;;22.84;100.00
46718;BME280;32448;44.960;-0.698;2023-06-14T07:57:14;101111.44;;;22.92;100.00
46718;BME280;32448;44.960;-0.698;2023-06-14T07:59:42;101107.94;;;22.90;100.00
46718;BME280;32448;44.960;-0.698;2023-06-14T08:02:09;101111.09;;;23.04;100.00
46718;BME280;32448;44.960;-0.698;2023-06-14T08:04:36;101110.19;;;23.05;100.00
46718;BME280;32448;44.960;-0.698;2023-06-14T08:07:04;101119.63;;;23.16;100.00
46718;BME280;32448;44.960;-0.698;2023-06-14T08:09:33;101115.88;;;23.22;100.00
46718;BME280;32448;44.960;-0.698;2023-06-14T08:12:00;101125.22;;;23.37;100.00
46718;BME280;32448;44.960;-0.698;2023-06-14T08:14:28;101121.44;;;23.44;100.00
46718;BME280;32448;44.960;-0.698;2023-06-14T08:16:55;101119.50;;;23.49;100.00
46718;BME280;32448;44.960;-0.698;2023-06-14T08:19:23;101120.25;;;23.54;100.00
46718;BME280;32448;44.960;-0.698;2023-06-14T08:21:50;101120.41;;;23.77;100.00
46718;BME280;32448;44.960;-0.698;2023-06-14T08:24:17;101119.31;;;23.84;100.00
46718;BME280;32448;44.960;-0.698;2023-06-14T08:26:45;101126.47;;;24.10;100.00
46718;BME280;32448;44.960;-0.698;2023-06-14T08:29:13;101123.69;;;24.13;100.00
46718;BME280;32448;44.960;-0.698;2023-06-14T08:31:40;101126.47;;;24.10;100.00
46718;BME280;32448;44.960;-0.698;2023-06-14T08:34:07;101125.31;;;24.19;100.00
46718;BME280;32448;44.960;-0.698;2023-06-14T08:36:35;101121.63;;;24.21;100.00
46718;BME280;32448;44.960;-0.698;2023-06-14T08:39:02;101120.69;;;24.50;100.00
46718;BME280;32448;44.960;-0.698;2023-06-14T08:41:29;101128.81;;;24.72;100.00
46718;BME280;32448;44.960;-0.698;2023-06-14T08:43:57;101115.94;;;24.83;100.00
46718;BME280;32448;44.960;-0.698;2023-06-14T08:46:25;101116.31;;;24.97;100.00
46718;BME280;32448;44.960;-0.698;2023-06-14T08:48:55;101130.81;;;25.15;100.00
46718;BME280;32448;44.960;-0.698;2023-06-14T08:51:24;101126.41;;;25.37;100.00
46718;BME280;32448;44.960;-0.698;2023-06-14T08:53:54;101130.50;;;25.46;100.00
46718;BME280;32448;44.960;-0.698;2023-06-14T08:56:27;101127.91;;;25.68;100.00
46718;BME280;32448;44.960;-0.698;2023-06-14T08:58:55;101134.13;;;25.68;100.00
46718;BME280;32448;44.960;-0.698;2023-06-14T09:01:23;101138.00;;;25.83;100.00
46718;BME280;32448;44.960;-0.698;2023-06-14T09:03:51;101133.56;;;26.04;100.00
46718;BME280;32448;44.960;-0.698;2023-06-14T09:06:18;101140.03;;;25.98;100.00
46718;BME280;32448;44.960;-0.698;2023-06-14T09:08:46;101143.47;;;26.02;100.00
46718;BME280;32448;44.960;-0.698;2023-06-14T09:11:16;101139.59;;;26.31;100.00
46718;BME280;32448;44.960;-0.698;2023-06-14T09:13:46;101144.03;;;26.10;100.00
46718;BME280;32448;44.960;-0.698;2023-06-14T09:16:14;101144.09;;;26.08;100.00
46718;BME280;32448;44.960;-0.698;2023-06-14T09:18:41;101141.41;;;26.08;100.00
46718;BME280;32448;44.960;-0.698;2023-06-14T09:21:11;101149.44;;;26.08;100.00
46718;BME280;32448;44.960;-0.698;2023-06-14T09:23:39;101149.94;;;26.18;100.00
46718;BME280;32448;44.960;-0.698;2023-06-14T09:26:11;101149.81;;;25.99;100.00
46718;BME280;32448;44.960;-0.698;2023-06-14T09:28:42;101152.94;;;25.89;100.00
46718;BME280;32448;44.960;-0.698;2023-06-14T09:31:16;101155.28;;;25.96;100.00
46718;BME280;32448;44.960;-0.698;2023-06-14T09:33:45;101155.72;;;26.07;100.00
46718;BME280;32448;44.960;-0.698;2023-06-14T09:36:20;101158.44;;;26.29;100.00
46718;BME280;32448;44.960;-0.698;2023-06-14T09:38:51;101166.66;;;26.46;100.00
46718;BME280;32448;44.960;-0.698;2023-06-14T09:41:19;101164.84;;;26.25;100.00
46718;BME280;32448;44.960;-0.698;2023-06-14T09:43:46;101154.53;;;26.58;100.00
46718;BME280;32448;44.960;-0.698;2023-06-14T09:46:14;101162.91;;;26.71;100.00
46718;BME280;32448;44.960;-0.698;2023-06-14T09:48:41;101159.34;;;26.70;100.00
46718;BME280;32448;44.960;-0.698;2023-06-14T09:51:10;101155.03;;;27.07;100.00
46718;BME280;32448;44.960;-0.698;2023-06-14T09:53:38;101154.81;;;27.32;100.00
46718;BME280;32448;44.960;-0.698;2023-06-14T09:56:07;101154.81;;;27.32;100.00
46718;BME280;32448;44.960;-0.698;2023-06-14T09:58:36;101163.09;;;27.46;100.00
46718;BME280;32448;44.960;-0.698;2023-06-14T10:01:06;101158.63;;;27.65;100.00
46718;BME280;32448;44.960;-0.698;2023-06-14T10:03:35;101158.47;;;27.68;100.00
46718;BME280;32448;44.960;-0.698;2023-06-14T10:06:24;101163.34;;;27.60;100.00
46718;BME280;32448;44.960;-0.698;2023-06-14T10:08:53;101164.91;;;27.45;100.00
46718;BME280;32448;44.960;-0.698;2023-06-14T10:11:23;101151.28;;;27.50;100.00
46718;BME280;32448;44.960;-0.698;2023-06-14T10:13:54;101143.50;;;27.63;100.00
46718;BME280;32448;44.960;-0.698;2023-06-14T10:24:32;101163.19;;;28.37;98.21
46718;BME280;32448;44.960;-0.698;2023-06-14T10:27:00;101172.00;;;28.21;100.00
46718;BME280;32448;44.960;-0.698;2023-06-14T10:29:28;101162.94;;;28.24;100.00
46718;BME280;32448;44.960;-0.698;2023-06-14T10:31:59;101168.16;;;28.08;100.00
46718;BME280;32448;44.960;-0.698;2023-06-14T10:34:28;101164.81;;;28.22;100.00
46718;BME280;32448;44.960;-0.698;2023-06-14T10:37:05;101162.59;;;28.30;100.00
46718;BME280;32448;44.960;-0.698;2023-06-14T10:39:40;101155.59;;;28.28;100.00
46718;BME280;32448;44.960;-0.698;2023-06-14T10:42:14;101161.13;;;28.42;100.00
46718;BME280;32448;44.960;-0.698;2023-06-14T10:44:42;101156.53;;;28.08;100.00
46718;BME280;32448;44.960;-0.698;2023-06-14T10:47:10;101155.50;;;28.10;100.00
46718;BME280;32448;44.960;-0.698;2023-06-14T10:49:49;101152.09;;;28.25;100.00
46718;BME280;32448;44.960;-0.698;2023-06-14T10:52:20;101152.53;;;28.16;100.00
46718;BME280;32448;44.960;-0.698;2023-06-14T10:55:04;101158.69;;;28.37;100.00
46718;BME280;32448;44.960;-0.698;2023-06-14T10:57:33;101142.38;;;28.40;100.00
46718;BME280;32448;44.960;-0.698;2023-06-14T11:00:17;101140.06;;;28.67;100.00
46718;BME280;32448;44.960;-0.698;2023-06-14T11:05:49;101130.91;;;28.88;100.00
46718;BME280;32448;44.960;-0.698;2023-06-14T11:11:00;101135.34;;;29.22;100.00
46718;BME280;32448;44.960;-0.698;2023-06-14T11:13:27;101130.22;;;29.33;100.00
46718;BME280;32448;44.960;-0.698;2023-06-14T11:15:57;101140.78;;;29.21;100.00
46718;BME280;32448;44.960;-0.698;2023-06-14T11:18:28;101135.75;;;29.15;100.00
46718;BME280;32448;44.960;-0.698;2023-06-14T11:20:55;101141.53;;;29.07;54.08
46718;BME280;32448;44.960;-0.698;2023-06-14T11:23:22;101132.47;;;29.25;100.00
46718;BME280;32448;44.960;-0.698;2023-06-14T11:25:50;101139.09;;;29.36;98.25
46718;BME280;32448;44.960;-0.698;2023-06-14T11:28:18;101136.16;;;29.40;69.89
46718;BME280;32448;44.960;-0.698;2023-06-14T11:30:48;101133.06;;;29.30;45.77
46718;BME280;32448;44.960;-0.698;2023-06-14T11:33:19;101137.50;;;29.31;40.96
46718;BME280;32448;44.960;-0.698;2023-06-14T11:35:46;101122.69;;;29.40;44.50
46718;BME280;32448;44.960;-0.698;2023-06-14T11:38:14;101124.28;;;29.44;47.24
46718;BME280;32448;44.960;-0.698;2023-06-14T11:40:41;101132.81;;;29.68;45.46
46718;BME280;32448;44.960;-0.698;2023-06-14T11:43:08;101124.69;;;29.84;42.20
46718;BME280;32448;44.960;-0.698;2023-06-14T11:45:36;101137.34;;;29.99;37.09
46718;BME280;32448;44.960;-0.698;2023-06-14T11:48:04;101133.22;;;29.92;36.29
46718;BME280;32448;44.960;-0.698;2023-06-14T11:50:37;101125.06;;;29.78;36.27
46718;BME280;32448;44.960;-0.698;2023-06-14T11:53:05;101130.69;;;29.73;36.23
46718;BME280;32448;44.960;-0.698;2023-06-14T11:55:37;101131.03;;;29.83;37.09
46718;BME280;32448;44.960;-0.698;2023-06-14T11:58:04;101137.25;;;29.69;34.60
46718;BME280;32448;44.960;-0.698;2023-06-14T12:00:32;101132.72;;;29.69;34.96
46718;BME280;32448;44.960;-0.698;2023-06-14T12:02:59;101137.25;;;29.69;35.91
46718;BME280;32448;44.960;-0.698;2023-06-14T12:05:27;101136.53;;;29.65;32.36
46718;BME280;32448;44.960;-0.698;2023-06-14T12:07:58;101139.75;;;29.72;34.20
46718;BME280;32448;44.960;-0.698;2023-06-14T12:10:27;101138.63;;;29.45;31.41
46718;BME280;32448;44.960;-0.698;2023-06-14T12:12:59;101138.59;;;29.60;38.03
46718;BME280;32448;44.960;-0.698;2023-06-14T12:15:29;101137.66;;;29.61;36.61
46718;BME280;32448;44.960;-0.698;2023-06-14T12:18:00;101141.84;;;29.67;36.41
46718;BME280;32448;44.960;-0.698;2023-06-14T12:20:30;101134.19;;;29.75;37.49
46718;BME280;32448;44.960;-0.698;2023-06-14T12:22:59;101145.75;;;29.77;33.97
46718;BME280;32448;44.960;-0.698;2023-06-14T12:25:28;101130.19;;;29.98;38.62
46718;BME280;32448;44.960;-0.698;2023-06-14T12:27:59;101138.41;;;29.95;39.42
46718;BME280;32448;44.960;-0.698;2023-06-14T12:30:30;101149.06;;;29.98;35.75
46718;BME280;32448;44.960;-0.698;2023-06-14T12:32:57;101143.75;;;29.96;35.87
46718;BME280;32448;44.960;-0.698;2023-06-14T12:35:24;101132.03;;;30.27;43.24
46718;BME280;32448;44.960;-0.698;2023-06-14T12:37:53;101139.41;;;30.55;35.17
46718;BME280;32448;44.960;-0.698;2023-06-14T12:40:21;101141.06;;;30.42;33.79
46718;BME280;32448;44.960;-0.698;2023-06-14T12:42:49;101142.72;;;30.45;31.77
46718;BME280;32448;44.960;-0.698;2023-06-14T12:45:17;101138.53;;;30.39;35.79
46718;BME280;32448;44.960;-0.698;2023-06-14T12:47:45;101149.47;;;30.52;32.10
46718;BME280;32448;44.960;-0.698;2023-06-14T12:50:13;101149.25;;;30.40;32.26
46718;BME280;32448;44.960;-0.698;2023-06-14T12:52:41;101147.94;;;30.48;35.51
46718;BME280;32448;44.960;-0.698;2023-06-14T12:55:08;101151.78;;;30.28;29.10